Погода Ла-Аурорана 2 недели

Халиско, Мексика

25 февраля-09 марта
  • 25февраля
    Сегодня
    +11°
    +30°
    Ясно и безоблачно
    ВремяПогодаТемператураВлажностьДавлениеВетер, м/сВероятность осадков
    00:00Ясно и безоблачно+16°C52 %648 мм2.1 м/с2 %
    03:00Ясно и безоблачно+13°C55 %646 мм0.7 м/с2 %
    06:00Облачно с прояснениями+11°C64 %646 мм0.9 м/с2 %
    09:00Ясно и безоблачно+16°C54 %649 мм0.3 м/с2 %
    12:00Ясно и безоблачно+26°C27 %651 мм1.2 м/с2 %
    15:00Ясно и безоблачно+29°C16 %649 мм1.5 м/с2 %
    18:00Ясно и безоблачно+29°C23 %648 мм1.0 м/с2 %
    21:00Ясно и безоблачно+21°C33 %647 мм1.9 м/с2 %
  • 26февраля
    Понедельник
    +11°
    +31°
    Ясно и безоблачно
    ВремяПогодаТемператураВлажностьДавлениеВетер, м/сВероятность осадков
    00:00Ясно и безоблачно+16°C54 %648 мм1.8 м/с2 %
    03:00Ясно и безоблачно+14°C68 %647 мм0.9 м/с2 %
    06:00Ясно и безоблачно+12°C72 %647 мм0.7 м/с2 %
    09:00Ясно и безоблачно+17°C59 %650 мм0.4 м/с2 %
    12:00Ясно и безоблачно+26°C25 %651 мм1.3 м/с2 %
    15:00Ясно и безоблачно+30°C15 %649 мм1.4 м/с2 %
    18:00Ясно и безоблачно+30°C25 %648 мм1.0 м/с2 %
    21:00Ясно и безоблачно+21°C32 %647 мм2.5 м/с2 %
  • 27февраля
    Вторник
    +11°
    +30°
    Практически безоблачно
    ВремяПогодаТемператураВлажностьДавлениеВетер, м/сВероятность осадков
    00:00Ясно и безоблачно+17°C60 %647 мм1.6 м/с2 %
    03:00Ясно и безоблачно+13°C80 %645 мм1.0 м/с2 %
    06:00Ясно и безоблачно+13°C82 %645 мм0.5 м/с2 %
    09:00Практически безоблачно+16°C63 %649 мм0.2 м/с2 %
    12:00Небольшая облачность+26°C23 %650 мм1.4 м/с2 %
    15:00Практически безоблачно+29°C18 %648 мм2.1 м/с2 %
    18:00Практически безоблачно+29°C21 %647 мм2.2 м/с2 %
    21:00Ясно и безоблачно+21°C30 %646 мм2.8 м/с2 %
  • 28февраля
    Среда
    +9°
    +29°
    Небольшая облачность
    ВремяПогодаТемператураВлажностьДавлениеВетер, м/сВероятность осадков
    00:00Ясно и безоблачно+17°C44 %646 мм1.8 м/с2 %
    03:00Ясно и безоблачно+13°C57 %645 мм1.0 м/с2 %
    06:00Ясно и безоблачно+11°C63 %645 мм0.5 м/с2 %
    09:00Ясно и безоблачно+16°C47 %648 мм0.2 м/с2 %
    12:00Небольшая облачность+26°C14 %649 мм1.1 м/с2 %
    15:00Небольшая облачность+29°C9 %647 мм1.5 м/с2 %
    18:00Небольшая облачность+28°C22 %646 мм1.2 м/с2 %
    21:00Небольшая облачность+20°C26 %646 мм2.1 м/с2 %
Мы используем cookies
Соглашаюсь